Time;durP1;ratioP1;P1;durP2;ratioP2;P2;SDS_P1;SDS_P2;PMS_P1;PMS_P2;Temp;Humidity;BMP_temperature;BMP_pressure;BME280_temperature;BME280_humidity;BME280_pressure;Samples;Min_cycle;Max_cycle;Signal;HPM_P1;HPM_P2
2021/04/09 00:01:26;;;;;;;20.02;15.32;;;5.90;75.90;;;;;;5135731;27;20036;-68
2021/04/09 00:03:57;;;;;;;20.70;16.10;;;5.90;76.40;;;;;;5135600;27;20540;-68
2021/04/09 00:06:23;;;;;;;20.48;16.20;;;5.90;76.40;;;;;;5135064;27;20471;-68
2021/04/09 00:08:49;;;;;;;18.70;16.60;;;5.80;76.20;;;;;;5135647;27;20035;-68
2021/04/09 00:11:15;;;;;;;21.20;15.88;;;5.80;76.40;;;;;;5135642;27;20479;-68
2021/04/09 00:13:41;;;;;;;19.88;15.88;;;5.80;76.30;;;;;;5135512;27;20039;-68
2021/04/09 00:16:07;;;;;;;21.20;16.13;;;5.80;76.70;;;;;;5135320;27;20442;-68
2021/04/09 00:18:32;;;;;;;19.27;16.02;;;5.70;77.00;;;;;;5135411;27;20039;-68
2021/04/09 00:20:59;;;;;;;23.30;15.80;;;5.70;77.60;;;;;;5135286;27;20043;-68
2021/04/09 00:23:25;;;;;;;21.80;16.55;;;5.70;77.90;;;;;;5135663;27;20042;-68
2021/04/09 00:25:51;;;;;;;20.83;15.48;;;5.70;78.10;;;;;;5135197;27;20035;-68
2021/04/09 00:28:17;;;;;;;29.23;17.20;;;5.70;77.80;;;;;;5135251;27;20035;-68
2021/04/09 00:30:42;;;;;;;22.58;15.40;;;5.70;77.80;;;;;;5135161;27;20524;-68
2021/04/09 00:33:08;;;;;;;21.38;15.52;;;5.70;77.60;;;;;;5135170;27;20069;-68
2021/04/09 00:35:34;;;;;;;19.67;14.32;;;5.70;77.20;;;;;;5134780;27;20071;-68
2021/04/09 00:38:01;;;;;;;19.42;15.27;;;5.80;77.40;;;;;;5135024;27;20475;-68
2021/04/09 00:40:26;;;;;;;20.60;15.57;;;5.70;77.50;;;;;;5135122;27;20050;-68
2021/04/09 00:42:52;;;;;;;20.00;15.65;;;5.80;77.00;;;;;;5134875;27;20428;-68
2021/04/09 00:45:19;;;;;;;21.77;15.75;;;5.80;77.10;;;;;;5134327;27;20512;-68
2021/04/09 00:47:45;;;;;;;26.20;16.15;;;5.70;77.40;;;;;;5134439;27;20035;-68
2021/04/09 00:50:13;;;;;;;21.55;15.77;;;5.70;77.90;;;;;;5135116;27;20080;-68
2021/04/09 00:52:40;;;;;;;21.52;15.63;;;5.70;77.80;;;;;;5134675;27;20046;-68
2021/04/09 00:55:08;;;;;;;19.45;14.80;;;5.70;77.90;;;;;;5134701;27;20042;-68
2021/04/09 00:57:35;;;;;;;19.17;14.65;;;5.70;77.60;;;;;;5134925;27;20587;-68
2021/04/09 01:00:10;;;;;;;20.30;14.43;;;5.70;77.90;;;;;;5134702;27;20049;-68
2021/04/09 01:02:37;;;;;;;22.20;15.63;;;5.70;78.10;;;;;;5134668;27;20135;-68
2021/04/09 01:05:05;;;;;;;24.40;15.05;;;5.60;79.00;;;;;;5134337;27;20050;-68
2021/04/09 01:07:31;;;;;;;20.85;15.75;;;5.70;78.30;;;;;;5134332;27;20073;-68
2021/04/09 01:09:56;;;;;;;26.58;15.55;;;5.70;78.70;;;;;;5134363;27;20039;-68
2021/04/09 01:12:23;;;;;;;25.17;14.77;;;5.70;79.00;;;;;;5134536;27;20039;-68
2021/04/09 01:14:49;;;;;;;19.33;15.23;;;5.70;78.50;;;;;;5134196;27;20134;-68
2021/04/09 01:17:24;;;;;;;23.38;16.20;;;5.80;79.20;;;;;;5134579;27;20039;-68
2021/04/09 01:20:07;;;;;;;21.60;15.20;;;5.80;79.30;;;;;;5134502;27;20114;-68
2021/04/09 01:22:45;;;;;;;24.80;14.57;;;5.80;80.00;;;;;;5134488;27;20047;-68
2021/04/09 01:25:29;;;;;;;17.50;13.10;;;5.70;79.50;;;;;;5134284;27;20073;-68
2021/04/09 01:28:15;;;;;;;23.35;14.70;;;5.80;79.30;;;;;;5134385;27;20046;-68
2021/04/09 01:31:07;;;;;;;20.15;14.13;;;5.80;79.60;;;;;;5133975;27;20235;-68
2021/04/09 01:33:36;;;;;;;25.13;14.35;;;5.80;79.20;;;;;;5134186;27;20035;-68
2021/04/09 01:36:14;;;;;;;20.65;14.48;;;5.80;79.30;;;;;;5133762;27;20042;-68
2021/04/09 01:38:44;;;;;;;20.58;14.13;;;5.80;79.80;;;;;;5134250;27;20043;-68
2021/04/09 01:41:11;;;;;;;19.77;14.60;;;5.80;80.20;;;;;;5134241;27;20043;-68
2021/04/09 01:43:39;;;;;;;20.17;14.43;;;5.70;80.10;;;;;;5134040;27;20043;-68
2021/04/09 01:46:08;;;;;;;21.65;14.18;;;5.80;80.30;;;;;;5134175;27;20472;-68
2021/04/09 01:48:36;;;;;;;23.45;14.80;;;5.80;79.90;;;;;;5134226;27;20060;-68
2021/04/09 01:51:03;;;;;;;23.58;15.95;;;5.70;80.20;;;;;;5134078;27;20043;-68
2021/04/09 01:53:29;;;;;;;22.77;14.68;;;5.80;80.60;;;;;;5134607;27;20031;-68
2021/04/09 01:55:57;;;;;;;22.73;15.45;;;5.80;80.20;;;;;;5133811;27;20039;-68
2021/04/09 01:58:24;;;;;;;22.63;14.75;;;5.80;79.90;;;;;;5137209;27;20046;-68
2021/04/09 02:00:51;;;;;;;23.25;15.43;;;5.80;80.50;;;;;;5138376;27;20046;-68
2021/04/09 02:03:24;;;;;;;22.95;15.00;;;5.70;80.60;;;;;;5138193;27;20039;-68
2021/04/09 02:05:52;;;;;;;20.85;14.30;;;5.80;80.30;;;;;;5137692;27;20058;-68
2021/04/09 02:08:19;;;;;;;22.25;14.88;;;5.80;80.00;;;;;;5137798;27;20528;-68
2021/04/09 02:10:47;;;;;;;21.80;15.15;;;5.80;80.70;;;;;;5137900;27;20039;-68
2021/04/09 02:13:13;;;;;;;22.80;15.25;;;5.80;80.40;;;;;;5137979;27;20499;-68
2021/04/09 02:15:40;;;;;;;24.38;15.20;;;5.80;80.10;;;;;;5137394;27;20039;-69
2021/04/09 02:18:06;;;;;;;25.77;15.43;;;5.80;80.40;;;;;;5137807;27;20486;-68
2021/04/09 02:20:32;;;;;;;20.13;15.20;;;5.80;80.30;;;;;;5137658;27;20073;-68
2021/04/09 02:22:59;;;;;;;19.33;14.43;;;5.80;80.30;;;;;;5137654;27;20047;-68
2021/04/09 02:25:25;;;;;;;23.48;16.70;;;5.80;80.10;;;;;;5137686;27;20039;-68
2021/04/09 02:27:52;;;;;;;22.35;15.93;;;5.80;80.00;;;;;;5138168;27;20383;-68
2021/04/09 02:30:21;;;;;;;21.75;15.48;;;5.90;79.80;;;;;;5137541;27;20039;-68
2021/04/09 02:32:47;;;;;;;21.30;15.82;;;5.90;80.20;;;;;;5137335;27;20035;-69
2021/04/09 02:35:14;;;;;;;21.15;15.75;;;5.90;80.80;;;;;;5137122;27;20122;-68
2021/04/09 02:37:43;;;;;;;21.40;15.25;;;5.80;80.30;;;;;;5136034;27;20109;-68
2021/04/09 02:40:14;;;;;;;22.98;15.20;;;5.80;80.40;;;;;;5137343;27;20565;-68
2021/04/09 02:42:45;;;;;;;23.10;15.98;;;5.80;80.70;;;;;;5137840;27;20039;-68
2021/04/09 02:45:12;;;;;;;26.02;15.50;;;5.80;81.00;;;;;;5136842;27;20043;-69
2021/04/09 02:47:39;;;;;;;21.98;16.05;;;5.80;80.80;;;;;;5137175;27;20043;-68
2021/04/09 02:50:10;;;;;;;23.83;16.35;;;5.80;81.20;;;;;;5137020;27;20031;-68
2021/04/09 02:52:58;;;;;;;22.83;15.98;;;5.90;81.30;;;;;;5137376;27;20040;-68
2021/04/09 02:55:32;;;;;;;21.73;15.05;;;5.80;81.20;;;;;;5135316;27;20066;-68
2021/04/09 02:58:03;;;;;;;23.70;15.65;;;5.80;81.10;;;;;;5137113;27;20110;-68
2021/04/09 03:00:29;;;;;;;23.00;16.10;;;5.80;81.30;;;;;;5136958;27;20146;-68
2021/04/09 03:02:56;;;;;;;24.75;16.02;;;5.80;81.60;;;;;;5136152;27;20043;-68
2021/04/09 03:05:28;;;;;;;23.27;15.32;;;5.80;81.30;;;;;;5135321;27;20042;-68
2021/04/09 03:07:57;;;;;;;23.60;15.43;;;5.70;81.40;;;;;;5136982;27;20104;-68
2021/04/09 03:10:23;;;;;;;29.05;16.45;;;5.80;81.40;;;;;;5135644;27;20543;-68
2021/04/09 03:12:49;;;;;;;21.75;15.90;;;5.80;81.50;;;;;;5137051;27;20040;-68
2021/04/09 03:15:21;;;;;;;22.65;15.10;;;5.80;81.90;;;;;;5136736;27;20142;-68
2021/04/09 03:18:04;;;;;;;24.63;15.80;;;5.80;81.80;;;;;;5136491;27;20483;-68
2021/04/09 03:20:30;;;;;;;20.35;15.00;;;5.80;81.70;;;;;;5136963;27;20487;-68
2021/04/09 03:22:56;;;;;;;25.95;16.25;;;5.80;81.70;;;;;;5136849;27;20035;-68
2021/04/09 03:25:22;;;;;;;26.30;16.60;;;5.80;81.90;;;;;;5136273;27;20050;-68
2021/04/09 03:27:48;;;;;;;25.73;15.82;;;5.70;81.70;;;;;;5136508;27;20382;-68
2021/04/09 03:30:16;;;;;;;22.27;16.27;;;5.80;82.50;;;;;;5136612;27;20046;-68
2021/04/09 03:32:42;;;;;;;23.27;15.90;;;5.70;82.30;;;;;;5136420;27;20372;-68
2021/04/09 03:35:08;;;;;;;23.10;15.68;;;5.80;82.30;;;;;;5135985;27;20045;-69
2021/04/09 03:37:35;;;;;;;24.05;16.70;;;5.80;82.20;;;;;;5136259;27;20039;-68
2021/04/09 03:40:00;;;;;;;24.85;17.38;;;5.70;82.60;;;;;;5136011;27;20078;-68
2021/04/09 03:42:26;;;;;;;22.00;15.80;;;5.80;82.40;;;;;;5136347;27;20136;-68
2021/04/09 03:44:52;;;;;;;23.80;16.65;;;5.80;82.70;;;;;;5135900;27;20035;-68
2021/04/09 03:47:18;;;;;;;23.50;16.67;;;5.80;82.80;;;;;;5136025;27;20094;-68
2021/04/09 03:49:43;;;;;;;28.38;16.65;;;5.70;83.00;;;;;;5136442;27;20043;-68
2021/04/09 03:52:09;;;;;;;22.88;16.35;;;5.80;82.30;;;;;;5136091;27;20047;-68
2021/04/09 03:54:35;;;;;;;22.75;16.27;;;5.80;82.20;;;;;;5135644;27;20039;-68
2021/04/09 03:57:01;;;;;;;26.80;17.17;;;5.80;82.90;;;;;;5136209;27;20043;-68
2021/04/09 03:59:26;;;;;;;25.23;17.33;;;5.80;83.30;;;;;;5136424;27;20039;-68
2021/04/09 04:01:52;;;;;;;26.33;17.08;;;5.70;83.00;;;;;;5135880;27;20501;-68
2021/04/09 04:04:18;;;;;;;27.10;17.35;;;5.70;83.20;;;;;;5135543;27;20039;-68
2021/04/09 04:06:44;;;;;;;27.60;17.63;;;5.70;83.40;;;;;;5135674;27;20031;-68
2021/04/09 04:09:10;;;;;;;26.88;17.60;;;5.70;83.30;;;;;;5135637;27;20043;-68
2021/04/09 04:11:35;;;;;;;28.30;16.13;;;5.70;83.70;;;;;;5135534;27;20420;-68
2021/04/09 04:14:01;;;;;;;23.85;17.15;;;5.70;83.30;;;;;;5135846;27;20070;-68
2021/04/09 04:16:27;;;;;;;27.88;18.27;;;5.70;84.10;;;;;;5135231;27;20035;-68
2021/04/09 04:18:52;;;;;;;28.80;17.50;;;5.70;84.30;;;;;;5135412;27;20102;-69
2021/04/09 04:21:19;;;;;;;25.05;17.85;;;5.60;84.10;;;;;;5135864;27;20050;-68
2021/04/09 04:23:45;;;;;;;25.60;16.77;;;5.60;84.80;;;;;;5134382;27;20066;-68
2021/04/09 04:26:13;;;;;;;26.10;18.10;;;5.60;84.80;;;;;;5135078;27;20054;-68
2021/04/09 04:28:38;;;;;;;28.40;17.33;;;5.60;85.20;;;;;;5135201;27;20039;-68
2021/04/09 04:31:04;;;;;;;26.63;17.45;;;5.60;84.90;;;;;;5135485;27;20540;-68
2021/04/09 04:33:30;;;;;;;26.60;18.45;;;5.70;85.00;;;;;;5135427;27;20047;-68
2021/04/09 04:35:56;;;;;;;26.95;17.60;;;5.70;85.10;;;;;;5134909;27;20095;-68
2021/04/09 04:38:21;;;;;;;24.35;17.38;;;5.70;85.10;;;;;;5135010;27;20035;-68
2021/04/09 04:40:48;;;;;;;28.50;18.63;;;5.70;85.00;;;;;;5135130;27;20039;-68
2021/04/09 04:43:14;;;;;;;25.60;18.33;;;5.80;85.20;;;;;;5134972;27;20038;-68
2021/04/09 04:45:41;;;;;;;26.10;17.77;;;5.70;85.10;;;;;;5134515;27;20047;-68
2021/04/09 04:48:07;;;;;;;25.92;17.30;;;5.80;85.30;;;;;;5134908;27;20433;-68
2021/04/09 04:50:33;;;;;;;24.48;17.05;;;5.80;85.40;;;;;;5134849;27;20114;-68
2021/04/09 04:52:59;;;;;;;25.95;17.88;;;5.80;84.90;;;;;;5134973;27;20047;-68
2021/04/09 04:55:25;;;;;;;25.40;16.73;;;5.80;84.60;;;;;;5134421;27;20069;-68
2021/04/09 04:57:51;;;;;;;25.33;17.58;;;5.80;85.00;;;;;;5134870;27;20035;-68
2021/04/09 05:00:17;;;;;;;25.52;16.80;;;5.80;85.60;;;;;;5134749;27;20168;-68
2021/04/09 05:02:43;;;;;;;26.02;17.60;;;5.80;86.00;;;;;;5134875;27;20506;-68
2021/04/09 05:05:10;;;;;;;28.10;17.65;;;5.80;85.50;;;;;;5134465;27;20043;-68
2021/04/09 05:07:36;;;;;;;25.00;17.83;;;5.80;85.40;;;;;;5134573;27;20035;-68
2021/04/09 05:10:02;;;;;;;27.38;18.33;;;5.80;85.80;;;;;;5134565;27;20046;-68
2021/04/09 05:12:28;;;;;;;24.38;17.55;;;5.80;85.70;;;;;;5134944;27;20133;-68
2021/04/09 05:14:54;;;;;;;32.67;17.73;;;5.80;86.00;;;;;;5134083;27;20459;-68
2021/04/09 05:17:20;;;;;;;27.70;17.80;;;5.80;85.80;;;;;;5134706;27;20027;-68
2021/04/09 05:19:46;;;;;;;29.00;17.60;;;5.80;86.20;;;;;;5134405;27;20043;-68
2021/04/09 05:22:12;;;;;;;25.58;18.02;;;5.80;86.00;;;;;;5134736;27;20054;-68
2021/04/09 05:24:37;;;;;;;25.50;16.45;;;5.80;86.50;;;;;;5133989;27;20039;-68
2021/04/09 05:27:05;;;;;;;24.70;17.52;;;5.70;86.20;;;;;;5134268;27;20046;-68
2021/04/09 05:29:30;;;;;;;31.30;17.45;;;5.70;86.60;;;;;;5134121;27;20443;-68
2021/04/09 05:31:57;;;;;;;24.88;17.13;;;5.70;87.00;;;;;;5133684;27;20140;-68
2021/04/09 05:34:23;;;;;;;25.65;17.75;;;5.70;87.00;;;;;;5134061;27;20066;-69
2021/04/09 05:36:48;;;;;;;21.50;16.13;;;5.70;86.80;;;;;;5134143;27;20436;-68
2021/04/09 05:39:14;;;;;;;27.60;17.45;;;5.70;86.80;;;;;;5134555;27;20069;-68
2021/04/09 05:41:40;;;;;;;25.45;16.38;;;5.70;87.30;;;;;;5133077;27;20100;-68
2021/04/09 05:44:05;;;;;;;29.17;17.40;;;5.70;87.60;;;;;;5134682;27;20042;-68
2021/04/09 05:46:31;;;;;;;31.58;17.08;;;5.80;87.10;;;;;;5134581;27;20093;-68
2021/04/09 05:48:57;;;;;;;27.73;17.38;;;5.90;87.10;;;;;;5134291;27;20035;-68
2021/04/09 05:51:23;;;;;;;28.45;16.73;;;6.00;87.20;;;;;;5134282;27;20027;-68
2021/04/09 05:53:49;;;;;;;23.70;16.15;;;6.20;86.60;;;;;;5134582;27;20042;-68
2021/04/09 05:56:15;;;;;;;27.77;17.05;;;6.30;85.90;;;;;;5134073;27;20103;-68
2021/04/09 05:58:40;;;;;;;28.80;17.48;;;6.30;85.90;;;;;;5134789;27;20081;-68
2021/04/09 06:01:06;;;;;;;23.90;15.77;;;6.50;85.70;;;;;;5134042;27;20123;-68
2021/04/09 06:03:32;;;;;;;22.25;15.07;;;6.60;85.00;;;;;;5134327;27;20395;-68
2021/04/09 06:05:58;;;;;;;23.30;15.32;;;6.70;84.70;;;;;;5133769;27;20042;-68
2021/04/09 06:08:23;;;;;;;22.58;15.52;;;6.70;84.50;;;;;;5134248;27;20036;-68
2021/04/09 06:10:49;;;;;;;24.90;15.40;;;6.80;85.10;;;;;;5134045;27;20043;-68
2021/04/09 06:13:16;;;;;;;23.05;14.32;;;6.90;84.00;;;;;;5134038;27;20530;-68
2021/04/09 06:15:41;;;;;;;24.60;15.80;;;7.10;83.50;;;;;;5134199;27;20031;-69
2021/04/09 06:18:11;;;;;;;23.48;14.07;;;7.30;83.10;;;;;;5134267;27;20162;-69
2021/04/09 06:20:37;;;;;;;21.58;15.10;;;7.60;82.40;;;;;;5133777;27;20035;-68
2021/04/09 06:23:03;;;;;;;21.88;13.90;;;7.80;81.70;;;;;;5133813;27;20035;-68
2021/04/09 06:25:30;;;;;;;20.52;14.23;;;8.00;81.50;;;;;;5132220;28;20042;-68
2021/04/09 06:27:56;;;;;;;25.55;15.88;;;8.10;80.60;;;;;;5133990;27;20490;-68
2021/04/09 06:30:22;;;;;;;16.27;13.00;;;8.20;80.30;;;;;;5133442;27;20039;-68
2021/04/09 06:32:48;;;;;;;20.08;13.40;;;8.30;80.00;;;;;;5133715;27;20031;-68
2021/04/09 06:35:14;;;;;;;20.75;13.82;;;8.30;80.00;;;;;;5133263;27;20547;-68
2021/04/09 06:37:41;;;;;;;24.20;14.27;;;8.20;80.40;;;;;;5133967;27;20130;-68
2021/04/09 06:40:09;;;;;;;19.90;12.75;;;8.20;80.60;;;;;;5133687;27;20038;-68
2021/04/09 06:42:34;;;;;;;21.50;13.88;;;8.30;80.90;;;;;;5134368;27;20039;-68
2021/04/09 06:45:02;;;;;;;21.17;13.00;;;8.20;80.50;;;;;;5134929;27;20387;-68
2021/04/09 06:47:28;;;;;;;25.67;13.95;;;8.20;80.90;;;;;;5137335;27;20042;-67
2021/04/09 06:49:54;;;;;;;19.35;13.88;;;8.10;81.50;;;;;;5137079;27;20039;-67
2021/04/09 06:52:20;;;;;;;24.60;14.35;;;8.10;82.10;;;;;;5137427;27;20156;-68
2021/04/09 06:54:46;;;;;;;21.55;13.52;;;8.10;81.90;;;;;;5136656;27;20035;-67
2021/04/09 06:57:13;;;;;;;20.52;14.10;;;8.10;81.80;;;;;;5137021;27;20047;-67
2021/04/09 06:59:43;;;;;;;19.35;14.20;;;8.00;82.30;;;;;;5137604;27;20073;-67
2021/04/09 07:02:15;;;;;;;20.40;12.77;;;8.00;82.70;;;;;;5135881;27;20111;-67
2021/04/09 07:04:41;;;;;;;20.40;12.95;;;8.00;82.50;;;;;;5136496;27;20039;-67
2021/04/09 07:07:09;;;;;;;18.63;13.15;;;8.00;83.00;;;;;;5136740;27;20042;-67
2021/04/09 07:09:35;;;;;;;22.42;12.82;;;7.90;83.60;;;;;;5135742;27;20039;-67
2021/04/09 07:12:03;;;;;;;19.55;12.95;;;7.90;83.70;;;;;;5136619;27;20114;-67
2021/04/09 07:14:50;;;;;;;19.90;12.05;;;7.90;84.40;;;;;;5136394;27;20039;-67
2021/04/09 07:17:24;;;;;;;25.75;12.50;;;7.90;84.30;;;;;;5136581;27;20122;-67
2021/04/09 07:19:50;;;;;;;;;;;7.90;84.80;;;;;;5137191;27;20035;-67
2021/04/09 07:22:27;;;;;;;21.95;11.38;;;7.80;85.60;;;;;;5136496;27;20006;-67
2021/04/09 07:25:02;;;;;;;20.85;10.77;;;7.90;85.10;;;;;;5136216;27;20031;-67
2021/04/09 07:27:28;;;;;;;17.85;11.50;;;8.00;85.00;;;;;;5136471;27;20050;-67
2021/04/09 07:29:54;;;;;;;21.60;11.75;;;8.00;85.10;;;;;;5135340;27;20505;-67
2021/04/09 07:32:25;;;;;;;19.65;11.52;;;8.00;85.50;;;;;;5136468;27;20047;-67
2021/04/09 07:35:11;;;;;;;25.35;12.05;;;8.10;84.60;;;;;;5136142;27;20039;-67
2021/04/09 07:37:55;;;;;;;18.00;11.45;;;8.00;85.50;;;;;;5136383;27;20390;-67
2021/04/09 07:40:32;;;;;;;19.75;12.00;;;8.20;85.70;;;;;;5136521;27;20047;-67
2021/04/09 07:42:59;;;;;;;21.20;12.00;;;8.20;85.30;;;;;;5136688;27;20461;-67
2021/04/09 07:45:28;;;;;;;18.50;10.68;;;8.30;85.10;;;;;;5135805;27;20080;-67
2021/04/09 07:47:55;;;;;;;19.63;11.32;;;8.30;85.20;;;;;;5136020;27;20031;-67
2021/04/09 07:50:31;;;;;;;20.58;10.93;;;8.40;85.30;;;;;;5136190;27;20573;-67
2021/04/09 07:52:57;;;;;;;17.77;11.52;;;8.40;85.50;;;;;;5136287;27;20110;-68
2021/04/09 07:55:24;;;;;;;19.42;10.20;;;8.50;85.20;;;;;;5135187;27;20097;-68
2021/04/09 07:57:51;;;;;;;18.90;10.63;;;8.50;85.00;;;;;;5136136;27;20074;-68
2021/04/09 08:00:27;;;;;;;22.13;11.95;;;8.60;84.30;;;;;;5135937;27;20155;-68
2021/04/09 08:02:55;;;;;;;29.35;11.90;;;8.50;85.10;;;;;;5134492;27;20035;-68
2021/04/09 08:05:23;;;;;;;22.63;12.63;;;8.50;85.00;;;;;;5135292;27;20096;-68
2021/04/09 08:07:49;;;;;;;17.42;10.48;;;8.60;84.80;;;;;;5135734;27;20035;-68
2021/04/09 08:10:16;;;;;;;18.75;11.02;;;8.60;84.70;;;;;;5135695;27;20047;-67
2021/04/09 08:12:44;;;;;;;19.20;11.38;;;8.50;84.50;;;;;;5135665;27;20062;-68
2021/04/09 08:15:15;;;;;;;22.27;10.73;;;8.50;85.10;;;;;;5135262;27;20407;-68
2021/04/09 08:17:42;;;;;;;20.38;11.52;;;8.50;85.30;;;;;;5135340;27;20043;-68
2021/04/09 08:20:14;;;;;;;18.23;10.52;;;8.50;85.10;;;;;;5135364;27;20043;-67
2021/04/09 08:22:40;;;;;;;18.95;10.82;;;8.50;85.40;;;;;;5135798;27;20054;-68
2021/04/09 08:25:08;;;;;;;17.13;9.90;;;8.50;86.20;;;;;;5134932;27;20063;-68
2021/04/09 08:27:35;;;;;;;15.75;11.25;;;8.60;85.60;;;;;;5133961;27;20558;-68
2021/04/09 08:30:03;;;;;;;14.75;10.05;;;8.60;85.50;;;;;;5135240;27;20069;-68
2021/04/09 08:32:30;;;;;;;19.42;10.10;;;8.50;85.50;;;;;;5135331;27;20039;-68
2021/04/09 08:34:57;;;;;;;21.92;10.27;;;8.50;85.30;;;;;;5133685;27;20060;-68
2021/04/09 08:37:23;;;;;;;17.58;9.70;;;8.50;85.90;;;;;;5134945;27;20509;-68
2021/04/09 08:39:51;;;;;;;19.65;10.40;;;8.50;86.20;;;;;;5134977;27;20034;-68
2021/04/09 08:42:18;;;;;;;21.67;9.75;;;8.60;86.30;;;;;;5134876;27;20478;-68
2021/04/09 08:44:44;;;;;;;22.98;10.00;;;8.70;86.30;;;;;;5134796;27;20035;-69
2021/04/09 08:47:11;;;;;;;15.55;9.95;;;8.70;86.10;;;;;;5134914;27;20087;-68
2021/04/09 08:49:37;;;;;;;22.00;11.30;;;8.70;86.20;;;;;;5134778;27;20078;-68
2021/04/09 08:52:05;;;;;;;16.23;10.52;;;8.80;85.90;;;;;;5135311;27;20075;-68
2021/04/09 08:54:31;;;;;;;17.95;10.88;;;8.90;85.60;;;;;;5134586;27;20494;-68
2021/04/09 08:57:02;;;;;;;15.93;10.50;;;8.80;86.10;;;;;;5134888;27;20050;-68
2021/04/09 08:59:42;;;;;;;25.83;12.10;;;8.80;86.10;;;;;;5133467;27;20042;-68
2021/04/09 09:02:17;;;;;;;27.42;11.88;;;8.90;86.00;;;;;;5134488;27;20497;-67
2021/04/09 09:05:04;;;;;;;19.38;10.68;;;8.90;86.20;;;;;;5134124;27;20062;-68
2021/04/09 09:07:48;;;;;;;17.33;10.80;;;9.00;86.20;;;;;;5133917;27;20113;-68
2021/04/09 09:10:22;;;;;;;21.48;11.48;;;9.00;85.70;;;;;;5133858;27;20035;-68
2021/04/09 09:13:08;;;;;;;23.33;10.13;;;9.00;86.20;;;;;;5134526;27;20035;-68
2021/04/09 09:15:43;;;;;;;23.38;12.07;;;9.10;86.20;;;;;;5134273;27;20031;-68
2021/04/09 09:18:24;;;;;;;20.33;11.07;;;9.00;86.00;;;;;;5134353;27;20035;-68
2021/04/09 09:21:15;;;;;;;21.15;10.35;;;9.00;86.30;;;;;;5133796;27;20123;-68
2021/04/09 09:23:41;;;;;;;19.00;9.43;;;9.10;86.40;;;;;;5134389;27;20031;-68
2021/04/09 09:26:39;;;;;;;18.55;9.68;;;9.00;86.10;;;;;;5134103;27;20031;-68
2021/04/09 09:29:24;;;;;;;14.73;7.55;;;9.00;85.80;;;;;;5134194;27;20395;-68
2021/04/09 09:32:07;;;;;;;18.30;8.07;;;9.00;85.20;;;;;;5134206;27;20497;-68
2021/04/09 09:34:41;;;;;;;14.02;6.85;;;8.90;85.60;;;;;;5133876;27;20114;-68
2021/04/09 09:37:15;;;;;;;13.63;7.97;;;9.00;85.70;;;;;;5134291;27;20395;-68
2021/04/09 09:39:48;;;;;;;14.52;6.72;;;9.00;86.20;;;;;;5134156;27;20035;-68
2021/04/09 09:42:27;;;;;;;17.00;7.63;;;9.00;86.40;;;;;;5134385;27;20039;-68
2021/04/09 09:44:56;;;;;;;18.95;6.82;;;9.00;86.80;;;;;;5133746;27;20039;-68
2021/04/09 09:47:41;;;;;;;15.15;6.28;;;9.10;86.80;;;;;;5133922;27;20035;-68
2021/04/09 09:50:08;;;;;;;10.20;5.22;;;9.10;85.60;;;;;;5133893;27;20083;-68
2021/04/09 09:52:42;;;;;;;13.98;4.95;;;9.20;85.10;;;;;;5133818;27;20142;-68
2021/04/09 09:55:25;;;;;;;10.40;5.47;;;9.30;84.90;;;;;;5134611;27;20043;-68
2021/04/09 09:57:55;;;;;;;12.35;6.00;;;9.40;84.80;;;;;;5132925;28;20082;-68
2021/04/09 10:00:30;;;;;;;12.52;5.25;;;9.40;83.80;;;;;;5133408;28;20472;-68
2021/04/09 10:03:19;;;;;;;15.20;5.97;;;9.50;84.30;;;;;;5134154;27;20080;-67
2021/04/09 10:06:01;;;;;;;13.98;5.20;;;9.50;83.80;;;;;;5133691;27;20062;-67
2021/04/09 10:08:29;;;;;;;10.73;5.55;;;9.60;82.40;;;;;;5134176;27;20042;-68
2021/04/09 10:10:59;;;;;;;13.25;5.60;;;9.60;82.70;;;;;;5132668;27;20092;-67
2021/04/09 10:13:37;;;;;;;11.82;4.03;;;9.60;82.00;;;;;;5133966;27;20039;-68
2021/04/09 10:16:11;;;;;;;16.33;5.38;;;9.50;82.10;;;;;;5133615;27;20047;-68
2021/04/09 10:18:39;;;;;;;12.05;4.75;;;9.50;82.00;;;;;;5135377;27;20114;-68
2021/04/09 10:21:15;;;;;;;10.55;5.28;;;9.40;82.80;;;;;;5137644;27;20042;-68
2021/04/09 10:23:42;;;;;;;15.15;5.43;;;9.40;81.90;;;;;;5137931;27;20035;-68
2021/04/09 10:26:10;;;;;;;11.40;5.13;;;9.30;82.60;;;;;;5137306;27;20043;-68
2021/04/09 10:28:37;;;;;;;14.82;5.00;;;9.20;83.30;;;;;;5137860;27;20379;-68
2021/04/09 10:31:17;;;;;;;8.32;4.95;;;9.20;83.50;;;;;;5137795;27;20031;-68
2021/04/09 10:33:48;;;;;;;13.43;4.78;;;9.30;83.90;;;;;;5138031;27;20389;-68
2021/04/09 10:36:21;;;;;;;12.82;5.22;;;9.30;83.90;;;;;;5136995;27;20035;-68
2021/04/09 10:38:50;;;;;;;10.38;5.47;;;9.40;84.30;;;;;;5137254;27;20074;-68
2021/04/09 10:41:39;;;;;;;9.18;4.45;;;9.50;83.40;;;;;;5137246;27;20039;-68
2021/04/09 10:44:17;;;;;;;11.57;5.00;;;9.60;82.10;;;;;;5137289;27;20027;-68
2021/04/09 10:46:46;;;;;;;11.73;4.93;;;9.50;83.00;;;;;;5135662;27;20035;-68
2021/04/09 10:49:35;;;;;;;12.30;4.57;;;9.40;84.10;;;;;;5136448;27;20047;-68
2021/04/09 10:52:10;;;;;;;10.77;5.20;;;9.20;84.30;;;;;;5137276;27;20043;-68
2021/04/09 10:54:38;;;;;;;18.27;4.55;;;9.10;85.60;;;;;;5137288;27;20035;-68
2021/04/09 10:57:10;;;;;;;12.25;5.18;;;9.10;86.20;;;;;;5136912;27;20035;-68
2021/04/09 10:59:38;;;;;;;13.00;5.10;;;9.00;87.00;;;;;;5137152;27;20043;-68
2021/04/09 11:02:06;;;;;;;7.05;4.38;;;8.90;87.40;;;;;;5137165;27;20038;-67
2021/04/09 11:04:33;;;;;;;9.57;4.57;;;8.90;87.30;;;;;;5136893;27;20085;-68
2021/04/09 11:07:07;;;;;;;11.70;5.13;;;8.90;87.00;;;;;;5136250;27;20122;-68
2021/04/09 11:09:47;;;;;;;13.57;5.55;;;9.00;87.00;;;;;;5136967;27;20035;-68
2021/04/09 11:12:16;;;;;;;14.93;5.97;;;8.90;87.30;;;;;;5136573;27;20084;-68
2021/04/09 11:14:42;;;;;;;13.23;4.97;;;8.80;88.00;;;;;;5136439;27;20122;-68
2021/04/09 11:17:08;;;;;;;14.05;5.57;;;8.90;87.50;;;;;;5136792;27;20122;-68
2021/04/09 11:19:35;;;;;;;11.85;5.05;;;8.90;87.30;;;;;;5136665;27;20045;-68
2021/04/09 11:22:04;;;;;;;11.70;5.22;;;8.90;88.10;;;;;;5136710;27;20067;-68
2021/04/09 11:24:35;;;;;;;15.85;6.10;;;9.00;87.10;;;;;;5136124;27;20035;-68
2021/04/09 11:27:21;;;;;;;19.13;6.20;;;8.90;87.50;;;;;;5136505;27;20032;-67
2021/04/09 11:29:47;;;;;;;13.60;5.63;;;8.90;87.90;;;;;;5135667;27;20050;-68
2021/04/09 11:32:21;;;;;;;12.52;5.55;;;9.00;88.10;;;;;;5136303;27;20114;-68
2021/04/09 11:34:52;;;;;;;14.65;5.82;;;8.90;88.70;;;;;;5135980;27;20047;-68
2021/04/09 11:37:20;;;;;;;10.07;5.93;;;9.00;89.00;;;;;;5136264;27;20031;-68
2021/04/09 11:39:53;;;;;;;13.57;5.88;;;9.00;88.80;;;;;;5136325;27;20066;-68
2021/04/09 11:42:33;;;;;;;13.05;5.75;;;9.10;88.40;;;;;;5136112;27;20035;-68
2021/04/09 11:45:02;;;;;;;13.98;5.93;;;9.10;88.30;;;;;;5136203;27;20074;-68
2021/04/09 11:47:36;;;;;;;13.25;5.72;;;9.20;88.50;;;;;;5136363;27;20042;-68
2021/04/09 11:50:22;;;;;;;15.52;5.70;;;9.30;88.10;;;;;;5135919;27;20088;-69
2021/04/09 11:52:49;;;;;;;7.20;5.35;;;9.60;85.80;;;;;;5135203;27;20061;-69
2021/04/09 11:55:16;;;;;;;15.85;6.53;;;9.80;85.50;;;;;;5135463;27;20074;-68
2021/04/09 11:57:42;;;;;;;14.70;5.55;;;10.10;86.10;;;;;;5135456;27;20039;-68
2021/04/09 12:00:37;;;;;;;14.18;5.05;;;10.20;84.80;;;;;;5135731;27;20047;-68
2021/04/09 12:03:09;;;;;;;16.10;5.65;;;10.40;81.60;;;;;;5126446;27;20079;-69
2021/04/09 12:05:35;;;;;;;16.33;5.43;;;10.50;80.60;;;;;;5135123;27;20034;-69
2021/04/09 12:08:03;;;;;;;12.77;5.40;;;10.70;81.90;;;;;;5135455;27;20057;-68
2021/04/09 12:10:31;;;;;;;9.82;4.90;;;10.90;81.50;;;;;;5135507;27;20139;-69
2021/04/09 12:12:57;;;;;;;9.15;4.90;;;10.90;80.30;;;;;;5135987;27;20035;-68
2021/04/09 12:15:25;;;;;;;9.82;4.35;;;10.90;80.60;;;;;;5135083;27;20372;-73
2021/04/09 12:17:52;;;;;;;11.65;4.22;;;10.90;79.60;;;;;;5135268;27;20035;-68
2021/04/09 12:20:20;;;;;;;17.15;6.07;;;10.80;78.90;;;;;;5134544;27;20054;-68
2021/04/09 12:22:46;;;;;;;8.63;5.07;;;10.70;79.40;;;;;;5135397;27;20043;-68
2021/04/09 12:25:14;;;;;;;13.52;5.22;;;10.70;79.60;;;;;;5134938;27;20046;-68
2021/04/09 12:27:41;;;;;;;12.88;4.60;;;10.70;80.20;;;;;;5135119;27;20038;-68
2021/04/09 12:30:10;;;;;;;9.95;4.90;;;10.60;80.10;;;;;;5135143;27;20089;-68
2021/04/09 12:32:36;;;;;;;8.98;4.93;;;10.50;80.40;;;;;;5135462;27;20031;-69
2021/04/09 12:35:04;;;;;;;13.55;5.00;;;10.50;79.80;;;;;;5134783;27;20055;-69
2021/04/09 12:37:29;;;;;;;7.43;4.35;;;10.40;80.40;;;;;;5135265;27;20039;-68
2021/04/09 12:39:55;;;;;;;7.85;4.60;;;10.40;81.70;;;;;;5135300;27;20113;-68
2021/04/09 12:42:22;;;;;;;13.00;4.53;;;10.40;81.80;;;;;;5133967;27;20055;-68
2021/04/09 12:44:52;;;;;;;10.80;4.57;;;10.60;81.60;;;;;;5135052;27;20106;-69
2021/04/09 12:47:19;;;;;;;8.32;4.03;;;10.60;81.40;;;;;;5135070;27;20045;-69
2021/04/09 12:49:45;;;;;;;6.32;3.80;;;10.70;80.40;;;;;;5134758;27;20066;-68
2021/04/09 12:52:12;;;;;;;10.45;4.50;;;10.80;80.10;;;;;;5134844;27;20098;-68